createdAt,value
2018-01-25T00:02:12.725Z,11.20
2018-01-25T00:04:42.173Z,12.03
2018-01-25T00:07:11.085Z,10.97
2018-01-25T00:09:40.559Z,11.10
2018-01-25T00:12:08.273Z,10.73
2018-01-25T00:14:35.959Z,9.53
2018-01-25T00:17:03.601Z,7.60
2018-01-25T00:19:31.439Z,8.17
2018-01-25T00:22:00.727Z,8.77
2018-01-25T00:24:30.024Z,7.00
2018-01-25T00:26:57.981Z,6.67
2018-01-25T00:29:25.652Z,6.70
2018-01-25T00:31:53.379Z,6.57
2018-01-25T00:34:21.789Z,7.00
2018-01-25T00:36:49.466Z,7.00
2018-01-25T00:39:18.907Z,6.20
2018-01-25T00:41:46.594Z,6.40
2018-01-25T00:44:14.247Z,5.73
2018-01-25T00:46:41.918Z,6.23
2018-01-25T00:49:10.441Z,6.67
2018-01-25T00:51:38.089Z,6.47
2018-01-25T00:54:05.717Z,7.57
2018-01-25T00:56:33.565Z,6.53
2018-01-25T00:59:02.035Z,6.87
2018-01-25T01:01:29.731Z,6.43
2018-01-25T01:03:58.141Z,7.00
2018-01-25T01:06:28.405Z,6.73
2018-01-25T01:08:56.209Z,7.47
2018-01-25T01:11:23.870Z,6.87
2018-01-25T01:13:52.323Z,9.00
2018-01-25T01:16:20.029Z,8.03
2018-01-25T01:18:47.880Z,7.50
2018-01-25T01:21:17.382Z,7.53
2018-01-25T01:23:45.383Z,7.90
2018-01-25T01:26:14.683Z,8.77
2018-01-25T01:28:42.353Z,8.37
2018-01-25T01:31:10.006Z,8.40
2018-01-25T01:33:37.661Z,7.40
2018-01-25T01:36:05.275Z,7.93
2018-01-25T01:38:32.933Z,8.10
2018-01-25T01:41:02.305Z,7.47
2018-01-25T01:43:29.985Z,8.40
2018-01-25T01:45:59.413Z,9.40
2018-01-25T01:48:27.143Z,7.30
2018-01-25T01:50:56.407Z,6.77
2018-01-25T01:53:24.182Z,6.70
2018-01-25T01:55:51.845Z,7.10
2018-01-25T01:58:19.488Z,7.27
2018-01-25T02:00:47.153Z,6.60
2018-01-25T02:03:14.903Z,6.93
2018-01-25T02:05:42.655Z,7.03
2018-01-25T02:08:10.312Z,6.17
2018-01-25T02:10:38.778Z,7.50
2018-01-25T02:13:06.483Z,6.53
2018-01-25T02:15:34.199Z,6.77
2018-01-25T02:18:01.857Z,7.03
2018-01-25T02:20:29.567Z,6.20
2018-01-25T02:22:57.451Z,7.10
2018-01-25T02:25:26.846Z,7.13
2018-01-25T02:27:54.582Z,7.00
2018-01-25T02:30:22.216Z,6.90
2018-01-25T02:32:50.164Z,6.70
2018-01-25T02:35:17.845Z,6.60
2018-01-25T02:37:47.210Z,6.33
2018-01-25T02:40:14.980Z,6.57
2018-01-25T02:42:43.420Z,6.07
2018-01-25T02:45:11.090Z,5.90
2018-01-25T02:47:38.833Z,6.00
2018-01-25T02:50:06.514Z,5.40
2018-01-25T02:52:34.134Z,6.50
2018-01-25T02:55:01.784Z,6.00
2018-01-25T02:57:29.422Z,6.00
2018-01-25T02:59:57.123Z,5.77
2018-01-25T03:02:24.754Z,5.10
2018-01-25T03:04:52.541Z,6.37
2018-01-25T03:07:20.336Z,5.40
2018-01-25T03:09:48.656Z,6.50
2018-01-25T03:12:16.390Z,5.53
2018-01-25T03:14:44.762Z,5.77
2018-01-25T03:17:12.417Z,5.70
2018-01-25T03:19:41.802Z,5.60
2018-01-25T03:22:09.624Z,5.87
2018-01-25T03:24:39.024Z,6.63
2018-01-25T03:27:07.280Z,5.97
2018-01-25T03:29:34.908Z,5.47
2018-01-25T03:32:03.289Z,6.00
2018-01-25T03:34:31.710Z,6.03
2018-01-25T03:36:59.304Z,5.67
2018-01-25T03:39:26.988Z,5.83
2018-01-25T03:41:54.608Z,5.90
2018-01-25T03:44:22.374Z,7.17
2018-01-25T03:46:50.028Z,6.47
2018-01-25T03:49:17.646Z,7.10
2018-01-25T03:51:45.363Z,7.37
2018-01-25T03:54:12.983Z,6.70
2018-01-25T03:56:40.748Z,7.60
2018-01-25T03:59:08.501Z,6.57
2018-01-25T04:01:39.894Z,8.00
2018-01-25T04:04:08.247Z,7.20
2018-01-25T04:06:38.021Z,7.73
2018-01-25T04:09:05.677Z,6.67
2018-01-25T04:11:33.372Z,7.80
2018-01-25T04:14:01.032Z,6.50
2018-01-25T04:16:30.392Z,6.60
2018-01-25T04:18:58.404Z,6.50
2018-01-25T04:21:26.040Z,6.87
2018-01-25T04:23:53.775Z,5.80
2018-01-25T04:26:21.485Z,5.17
2018-01-25T04:28:49.126Z,5.60
2018-01-25T04:31:16.839Z,6.20
2018-01-25T04:33:46.030Z,5.63
2018-01-25T04:36:15.432Z,6.40
2018-01-25T04:38:43.081Z,5.70
2018-01-25T04:41:10.742Z,5.00
2018-01-25T04:43:38.372Z,5.20
2018-01-25T04:46:06.044Z,5.93
2018-01-25T04:48:34.446Z,5.07
2018-01-25T04:51:02.149Z,5.37
2018-01-25T04:53:29.798Z,5.60
2018-01-25T04:55:57.454Z,5.40
2018-01-25T04:58:25.203Z,5.40
2018-01-25T05:00:52.856Z,5.77
2018-01-25T05:03:20.529Z,5.27
2018-01-25T05:05:48.208Z,5.60
2018-01-25T05:08:15.848Z,5.53
2018-01-25T05:10:43.477Z,5.50
2018-01-25T05:13:11.274Z,5.90
2018-01-25T05:15:40.512Z,5.53
2018-01-25T05:18:08.222Z,4.77
2018-01-25T05:20:37.612Z,5.60
2018-01-25T05:23:05.329Z,5.40
2018-01-25T05:25:33.097Z,5.80
2018-01-25T05:28:03.053Z,5.47
2018-01-25T05:30:33.471Z,5.00
2018-01-25T05:33:01.196Z,6.37
2018-01-25T05:35:28.876Z,6.30
2018-01-25T05:37:58.351Z,6.10
2018-01-25T05:40:26.031Z,5.83
2018-01-25T05:42:53.797Z,5.40
2018-01-25T05:45:24.649Z,6.80
2018-01-25T05:47:54.051Z,6.10
2018-01-25T05:50:21.727Z,8.07
2018-01-25T05:52:49.431Z,6.80
2018-01-25T05:55:17.159Z,8.40
2018-01-25T05:57:44.915Z,7.47
2018-01-25T06:00:12.633Z,14.40
2018-01-25T06:02:41.883Z,16.20
2018-01-25T06:05:09.714Z,19.33
2018-01-25T06:07:37.391Z,17.60
2018-01-25T06:10:05.804Z,15.90
2018-01-25T06:12:33.480Z,13.80
2018-01-25T06:15:01.183Z,13.03
2018-01-25T06:17:28.907Z,11.80
2018-01-25T06:19:58.797Z,14.30
2018-01-25T06:22:26.457Z,13.97
2018-01-25T06:24:54.175Z,18.93
2018-01-25T06:27:21.850Z,19.27
2018-01-25T06:29:49.479Z,16.93
2018-01-25T06:32:17.403Z,15.97
2018-01-25T06:34:45.197Z,19.60
2018-01-25T06:37:12.917Z,18.50
2018-01-25T06:39:40.575Z,17.70
2018-01-25T06:42:08.391Z,13.70
2018-01-25T06:44:38.300Z,11.90
2018-01-25T06:47:08.657Z,11.37
2018-01-25T06:49:36.368Z,12.10
2018-01-25T06:52:04.068Z,12.13
2018-01-25T06:54:31.700Z,11.77
2018-01-25T06:56:59.329Z,12.07
2018-01-25T06:59:28.727Z,12.50
2018-01-25T07:02:00.741Z,11.70
2018-01-25T07:04:28.487Z,11.50
2018-01-25T07:06:56.841Z,12.13
2018-01-25T07:09:27.060Z,11.10
2018-01-25T07:11:54.743Z,11.20
2018-01-25T07:14:22.408Z,10.43
2018-01-25T07:16:50.082Z,9.97
2018-01-25T07:19:17.724Z,8.97
2018-01-25T07:21:45.404Z,9.17
2018-01-25T07:24:13.085Z,9.80
2018-01-25T07:26:40.713Z,9.33
2018-01-25T07:29:08.513Z,9.10
2018-01-25T07:31:36.988Z,9.07
2018-01-25T07:34:07.332Z,9.70
2018-01-25T07:36:35.180Z,9.60
2018-01-25T07:39:02.914Z,8.77
2018-01-25T07:41:32.306Z,8.03
2018-01-25T07:44:00.408Z,8.60
2018-01-25T07:46:28.081Z,8.20
2018-01-25T07:48:55.814Z,7.50
2018-01-25T07:51:25.071Z,8.30
2018-01-25T07:53:52.775Z,7.43
2018-01-25T07:56:23.278Z,8.90
2018-01-25T07:58:50.993Z,8.67
2018-01-25T08:01:18.732Z,8.47
2018-01-25T08:03:46.592Z,7.80
2018-01-25T08:06:14.292Z,7.17
2018-01-25T08:08:42.118Z,8.30
2018-01-25T08:11:13.756Z,8.33
2018-01-25T08:13:41.440Z,7.83
2018-01-25T08:16:17.948Z,8.00
2018-01-25T08:18:47.346Z,7.63
2018-01-25T08:21:15.118Z,8.03
2018-01-25T08:23:43.150Z,7.93
2018-01-25T08:26:10.919Z,8.20
2018-01-25T08:28:38.604Z,8.03
2018-01-25T08:31:06.343Z,7.37
2018-01-25T08:33:34.013Z,8.17
2018-01-25T08:36:01.899Z,7.87
2018-01-25T08:38:29.588Z,7.93
2018-01-25T08:40:57.242Z,8.30
2018-01-25T08:43:25.299Z,8.90
2018-01-25T08:45:54.725Z,8.50
2018-01-25T08:48:22.522Z,8.50
2018-01-25T08:50:50.991Z,8.50
2018-01-25T08:53:18.782Z,7.47
2018-01-25T08:55:46.576Z,7.40
2018-01-25T08:58:14.269Z,7.30
2018-01-25T09:00:41.938Z,9.37
2018-01-25T09:03:10.405Z,8.57
2018-01-25T09:05:40.690Z,8.70
2018-01-25T09:08:11.368Z,9.47
2018-01-25T09:10:39.021Z,9.33
2018-01-25T09:13:06.912Z,11.53
2018-01-25T09:15:34.910Z,12.00
2018-01-25T09:18:04.175Z,13.67
2018-01-25T09:20:31.939Z,14.50
2018-01-25T09:23:01.373Z,14.27
2018-01-25T09:25:29.172Z,12.63
2018-01-25T09:27:58.596Z,12.37
2018-01-25T09:30:26.578Z,11.33
2018-01-25T09:32:54.484Z,11.60
2018-01-25T09:35:23.358Z,10.90
2018-01-25T09:37:52.801Z,11.50
2018-01-25T09:40:20.560Z,9.83
2018-01-25T09:42:51.166Z,8.40
2018-01-25T09:45:18.919Z,7.40
2018-01-25T09:47:46.615Z,8.90
2018-01-25T09:50:14.501Z,9.10
2018-01-25T09:52:42.573Z,8.30
2018-01-25T09:55:10.316Z,8.17
2018-01-25T10:10:38.992Z,9.87
2018-01-25T10:13:07.047Z,9.30
2018-01-25T10:15:34.850Z,9.33
2018-01-25T10:18:03.421Z,9.80
2018-01-25T10:20:31.243Z,9.37
2018-01-25T10:22:58.987Z,8.80
2018-01-25T10:25:26.809Z,9.53
2018-01-25T10:27:57.791Z,9.70
2018-01-25T10:30:25.682Z,9.47
2018-01-25T10:32:53.343Z,8.50
2018-01-25T10:35:23.731Z,10.47
2018-01-25T10:37:51.456Z,5.70
2018-01-25T10:40:21.189Z,7.37
2018-01-25T10:42:49.017Z,5.23
2018-01-25T10:45:16.845Z,5.60
2018-01-25T10:47:44.563Z,7.17
2018-01-25T10:50:12.460Z,8.30
2018-01-25T10:52:41.099Z,7.73
2018-01-25T10:55:08.963Z,5.83
2018-01-25T10:57:38.442Z,5.87
2018-01-25T11:00:08.837Z,7.77
2018-01-25T11:02:36.582Z,6.83
2018-01-25T11:05:06.183Z,6.13
2018-01-25T11:07:35.607Z,4.73
2018-01-25T11:10:04.163Z,6.80
2018-01-25T11:12:31.835Z,7.33
2018-01-25T11:14:59.577Z,6.60
2018-01-25T11:17:27.299Z,6.17
2018-01-25T11:19:57.124Z,6.23
2018-01-25T11:22:27.409Z,6.30
2018-01-25T11:24:56.869Z,5.40
2018-01-25T11:27:24.623Z,4.67
2018-01-25T11:29:52.357Z,4.53
2018-01-25T11:32:20.059Z,4.20
2018-01-25T11:34:47.783Z,4.50
2018-01-25T11:37:15.486Z,4.13
2018-01-25T11:39:45.757Z,4.43
2018-01-25T11:42:13.477Z,3.97
2018-01-25T11:44:41.929Z,4.10
2018-01-25T11:47:09.668Z,3.40
2018-01-25T11:49:37.427Z,4.47
2018-01-25T11:52:05.385Z,3.80
2018-01-25T11:54:33.273Z,4.07
2018-01-25T11:57:00.981Z,4.40
2018-01-25T11:59:28.944Z,4.33
2018-01-25T12:01:56.571Z,3.60
2018-01-25T12:04:25.893Z,3.80
2018-01-25T12:06:53.498Z,4.10
2018-01-25T12:09:25.125Z,3.53
2018-01-25T12:11:54.590Z,3.90
2018-01-25T12:14:24.069Z,3.70
2018-01-25T12:16:51.760Z,3.70
2018-01-25T12:19:19.455Z,3.90
2018-01-25T12:21:49.122Z,4.73
2018-01-25T12:24:19.074Z,3.70
2018-01-25T12:26:46.791Z,4.07
2018-01-25T12:29:14.568Z,4.10
2018-01-25T12:31:42.226Z,3.73
2018-01-25T12:34:09.872Z,4.10
2018-01-25T12:36:37.541Z,3.83
2018-01-25T12:39:05.250Z,3.37
2018-01-25T12:41:32.999Z,3.67
2018-01-25T12:44:00.767Z,3.60
2018-01-25T12:46:28.613Z,3.10
2018-01-25T12:48:58.071Z,2.63
2018-01-25T12:51:25.782Z,2.80
2018-01-25T12:53:53.512Z,2.90
2018-01-25T12:56:21.352Z,4.10
2018-01-25T12:58:48.991Z,2.70
2018-01-25T13:01:18.243Z,3.97
2018-01-25T13:03:45.908Z,3.83
2018-01-25T13:06:13.567Z,4.80
2018-01-25T13:08:41.379Z,5.30
2018-01-25T13:11:09.522Z,4.00
2018-01-25T13:13:37.198Z,4.53
2018-01-25T13:16:04.934Z,4.53
2018-01-25T13:18:32.655Z,4.17
2018-01-25T13:21:00.296Z,8.90
2018-01-25T13:23:27.956Z,9.33
2018-01-25T13:25:57.380Z,23.40
2018-01-25T13:28:25.816Z,10.00
2018-01-25T13:30:53.518Z,5.30
2018-01-25T13:33:26.695Z,7.40
2018-01-25T13:35:55.114Z,8.30
2018-01-25T13:38:23.107Z,5.33
2018-01-25T13:40:50.764Z,9.30
2018-01-25T13:43:20.625Z,7.63
2018-01-25T13:45:50.202Z,6.47
2018-01-25T13:48:20.546Z,5.50
2018-01-25T13:50:50.892Z,6.67
2018-01-25T13:53:18.566Z,7.30
2018-01-25T13:55:46.243Z,6.73
2018-01-25T13:58:13.914Z,6.47
2018-01-25T14:03:13.790Z,5.53
2018-01-25T14:05:41.498Z,5.50
2018-01-25T14:08:09.208Z,5.90
2018-01-25T14:10:37.831Z,5.90
2018-01-25T14:13:06.492Z,5.80
2018-01-25T14:15:34.403Z,8.00
2018-01-25T14:18:02.620Z,12.10
2018-01-25T14:20:30.694Z,8.20
2018-01-25T14:22:58.533Z,7.13
2018-01-25T14:25:27.290Z,6.20
2018-01-25T14:27:55.204Z,6.93
2018-01-25T14:30:22.824Z,8.17
2018-01-25T14:32:50.561Z,9.20
2018-01-25T14:35:19.954Z,8.60
2018-01-25T14:37:47.674Z,10.27
2018-01-25T14:40:15.226Z,9.00
2018-01-25T14:42:43.155Z,11.23
2018-01-25T14:45:12.480Z,10.77
2018-01-25T14:47:41.841Z,10.40
2018-01-25T14:50:10.222Z,10.73
2018-01-25T14:52:40.065Z,10.87
2018-01-25T14:55:07.799Z,10.37
2018-01-25T14:57:35.428Z,10.93
2018-01-25T15:00:05.046Z,11.20
2018-01-25T15:02:32.937Z,11.83
2018-01-25T15:05:03.182Z,11.30
2018-01-25T15:07:30.950Z,11.63
2018-01-25T15:10:00.429Z,11.40
2018-01-25T15:12:28.179Z,16.77
2018-01-25T15:14:58.168Z,14.00
2018-01-25T15:17:26.614Z,11.70
2018-01-25T15:19:54.408Z,12.67
2018-01-25T15:22:23.052Z,12.30
2018-01-25T15:24:53.921Z,12.10
2018-01-25T15:27:27.159Z,11.87
2018-01-25T15:29:56.604Z,11.23
2018-01-25T15:32:24.371Z,12.00
2018-01-25T15:34:53.716Z,14.47
2018-01-25T15:37:21.497Z,15.33
2018-01-25T15:39:50.941Z,13.40
2018-01-25T15:42:19.351Z,12.50
2018-01-25T15:44:47.199Z,12.37
2018-01-25T15:47:14.992Z,11.47
2018-01-25T15:49:42.684Z,11.50
2018-01-25T15:52:11.134Z,12.77
2018-01-25T15:54:41.473Z,14.70
2018-01-25T15:59:08.002Z,14.80
2018-01-25T16:01:36.523Z,12.03
2018-01-25T16:04:04.992Z,15.20
2018-01-25T16:06:35.132Z,15.33
2018-01-25T16:09:06.215Z,12.90
2018-01-25T16:11:34.656Z,14.23
2018-01-25T16:14:03.135Z,14.87
2018-01-25T16:16:33.253Z,13.60
2018-01-25T16:19:02.457Z,13.27
2018-01-25T16:21:30.826Z,20.83
2018-01-25T16:24:00.009Z,16.20
2018-01-25T16:26:28.429Z,16.13
2018-01-25T16:28:57.804Z,17.40
2018-01-25T16:31:27.001Z,17.40
2018-01-25T16:33:56.143Z,15.70
2018-01-25T16:36:26.063Z,17.10
2018-01-25T16:38:54.432Z,18.43
2018-01-25T16:41:23.548Z,15.60
2018-01-25T16:43:54.848Z,13.90
2018-01-25T16:46:23.314Z,14.83
2018-01-25T16:48:51.781Z,15.30
2018-01-25T16:51:22.207Z,16.90
2018-01-25T16:53:53.631Z,14.63
2018-01-25T16:56:30.983Z,13.30
2018-01-25T16:59:01.335Z,14.93
2018-01-25T17:01:29.924Z,14.67
2018-01-25T17:03:59.269Z,14.23
2018-01-25T17:06:28.323Z,14.63
2018-01-25T17:08:56.639Z,15.23
2018-01-25T17:11:25.021Z,15.23
2018-01-25T17:13:53.469Z,14.90
2018-01-25T17:16:23.635Z,14.57
2018-01-25T17:18:52.021Z,16.53
2018-01-25T17:21:20.664Z,15.83
2018-01-25T17:23:48.982Z,16.53
2018-01-25T17:26:18.001Z,17.07
2018-01-25T17:28:46.439Z,15.97
2018-01-25T17:31:14.995Z,16.50
2018-01-25T17:33:44.131Z,15.73
2018-01-25T17:36:12.642Z,16.20
2018-01-25T17:38:42.515Z,17.20
2018-01-25T17:41:11.820Z,18.53
2018-01-25T17:43:45.455Z,17.40
2018-01-25T17:46:14.400Z,16.00
2018-01-25T17:48:45.386Z,16.30
2018-01-25T17:51:13.712Z,16.87
2018-01-25T17:53:42.873Z,16.90
2018-01-25T17:56:14.306Z,16.70
2018-01-25T17:58:44.131Z,16.73
2018-01-25T18:01:14.114Z,15.93
2018-01-25T18:03:42.528Z,17.50
2018-01-25T18:06:12.613Z,18.70
2018-01-25T18:08:44.177Z,20.00
2018-01-25T18:11:12.702Z,19.20
2018-01-25T18:13:45.950Z,19.90
2018-01-25T18:16:16.400Z,20.17
2018-01-25T18:18:45.412Z,20.73
2018-01-25T18:21:13.845Z,20.07
2018-01-25T18:23:44.577Z,20.27
2018-01-25T18:26:12.937Z,18.70
2018-01-25T18:28:41.391Z,18.00
2018-01-25T18:31:12.636Z,16.73
2018-01-25T18:33:42.288Z,19.27
2018-01-25T18:36:12.273Z,19.13
2018-01-25T18:38:42.532Z,20.07
2018-01-25T18:41:11.810Z,22.80
2018-01-25T18:43:45.185Z,22.10
2018-01-25T18:46:16.134Z,22.90
2018-01-25T18:48:46.391Z,21.90
2018-01-25T18:51:14.883Z,21.63
2018-01-25T18:53:43.238Z,21.97
2018-01-25T18:56:11.725Z,21.97
2018-01-25T18:58:41.787Z,21.27
2018-01-25T19:01:12.104Z,19.77
2018-01-25T19:03:42.670Z,19.40
2018-01-25T19:06:11.519Z,18.40
2018-01-25T19:08:39.983Z,20.07
2018-01-25T19:11:08.372Z,19.17
2018-01-25T19:13:36.966Z,19.93
2018-01-25T19:16:05.415Z,18.23
2018-01-25T19:18:34.049Z,18.50
2018-01-25T19:21:04.190Z,19.50
2018-01-25T19:23:33.660Z,20.33
2018-01-25T19:26:01.994Z,23.17
2018-01-25T19:28:30.410Z,22.10
2018-01-25T19:31:01.352Z,20.63
2018-01-25T19:33:30.545Z,21.60
2018-01-25T19:36:00.160Z,22.97
2018-01-25T19:38:28.944Z,24.47
2018-01-25T19:40:59.369Z,22.80
2018-01-25T19:43:30.579Z,24.07
2018-01-25T19:45:59.100Z,24.07
2018-01-25T19:48:27.573Z,23.20
2018-01-25T19:50:55.979Z,22.93
2018-01-25T19:53:24.464Z,25.83
2018-01-25T19:55:53.647Z,22.80
2018-01-25T19:58:24.010Z,22.43
2018-01-25T20:00:54.100Z,21.70
2018-01-25T20:03:22.558Z,22.53
2018-01-25T20:05:53.758Z,22.37
2018-01-25T20:08:23.244Z,24.20
2018-01-25T20:10:51.726Z,22.80
2018-01-25T20:13:20.921Z,25.27
2018-01-25T20:15:49.303Z,25.23
2018-01-25T20:18:20.619Z,25.40
2018-01-25T20:20:51.402Z,23.60
2018-01-25T20:23:19.917Z,23.77
2018-01-25T20:25:48.587Z,24.40
2018-01-25T20:28:17.103Z,20.90
2018-01-25T20:30:47.356Z,22.30
2018-01-25T20:33:18.061Z,21.67
2018-01-25T20:35:48.340Z,19.73
2018-01-25T20:38:19.164Z,21.77
2018-01-25T20:40:48.720Z,21.57
2018-01-25T20:43:18.215Z,19.70
2018-01-25T20:45:46.692Z,19.70
2018-01-25T20:48:15.485Z,18.43
2018-01-25T20:50:44.169Z,20.03
2018-01-25T20:53:12.769Z,20.37
2018-01-25T20:55:43.741Z,21.07
2018-01-25T20:58:12.286Z,19.97
2018-01-25T21:00:42.365Z,19.60
2018-01-25T21:03:10.812Z,20.50
2018-01-25T21:05:39.128Z,19.60
2018-01-25T21:08:07.481Z,17.77
2018-01-25T21:10:35.839Z,21.37
2018-01-25T21:13:05.888Z,22.47
2018-01-25T21:15:34.280Z,22.70
2018-01-25T21:18:02.640Z,21.40
2018-01-25T21:20:32.823Z,21.70
2018-01-25T21:23:01.259Z,20.23
2018-01-25T21:25:29.711Z,20.10
2018-01-25T21:27:58.039Z,21.57
2018-01-25T21:30:28.889Z,21.57
2018-01-25T21:32:59.947Z,19.20
2018-01-25T21:35:28.416Z,23.03
2018-01-25T21:37:56.781Z,22.87
2018-01-25T21:40:25.143Z,23.47
2018-01-25T21:42:53.508Z,23.73
2018-01-25T21:45:21.869Z,23.30
2018-01-25T21:47:50.236Z,23.53
2018-01-25T21:50:18.624Z,21.77
2018-01-25T21:52:49.387Z,21.10
2018-01-25T21:55:18.576Z,19.47
2018-01-25T21:57:46.966Z,19.53
2018-01-25T22:00:17.923Z,19.40
2018-01-25T22:02:46.242Z,16.77
2018-01-25T22:05:15.773Z,15.23
2018-01-25T22:07:44.135Z,14.67
2018-01-25T22:10:12.512Z,14.00
2018-01-25T22:12:41.675Z,14.30
2018-01-25T22:15:09.995Z,14.00
2018-01-25T22:17:38.387Z,15.13
2018-01-25T22:20:06.749Z,17.10
2018-01-25T22:22:35.904Z,16.10
2018-01-25T22:25:05.823Z,18.57
2018-01-25T22:27:34.186Z,21.93
2018-01-25T22:30:02.491Z,19.83
2018-01-25T22:32:30.886Z,19.80
2018-01-25T22:34:59.189Z,21.47
2018-01-25T22:37:29.263Z,22.00
2018-01-25T22:40:00.282Z,24.30
2018-01-25T22:42:28.673Z,26.33
2018-01-25T22:44:56.949Z,24.60
2018-01-25T22:47:27.076Z,27.47
2018-01-25T22:49:56.165Z,21.60
2018-01-25T22:52:25.519Z,20.67
2018-01-25T22:54:53.953Z,20.40
2018-01-25T22:57:22.279Z,20.27
2018-01-25T22:59:50.651Z,17.20
2018-01-25T23:02:18.961Z,18.00
2018-01-25T23:04:47.305Z,18.70
2018-01-25T23:07:17.303Z,17.60
2018-01-25T23:09:46.391Z,21.47
2018-01-25T23:12:16.473Z,20.37
2018-01-25T23:14:44.810Z,17.27
2018-01-25T23:17:14.865Z,16.20
2018-01-25T23:19:46.055Z,18.03
2018-01-25T23:22:14.553Z,19.20
2018-01-25T23:24:43.645Z,19.17
2018-01-25T23:27:12.230Z,19.90
2018-01-25T23:29:40.560Z,18.23
2018-01-25T23:32:08.847Z,18.00
2018-01-25T23:34:37.161Z,18.47
2018-01-25T23:37:06.267Z,19.10
2018-01-25T23:39:36.907Z,19.27
2018-01-25T23:42:05.241Z,19.20
2018-01-25T23:44:33.529Z,21.50
2018-01-25T23:47:02.006Z,21.87
2018-01-25T23:49:30.365Z,22.53
2018-01-25T23:51:58.683Z,22.03
2018-01-25T23:54:26.983Z,23.83
2018-01-25T23:56:55.313Z,22.87
2018-01-25T23:59:23.585Z,23.87
